createdAt,value
2022-10-03T00:02:00.825Z,10.71
2022-10-03T00:07:50.668Z,10.77
2022-10-03T00:13:25.590Z,10.76
2022-10-03T00:18:59.267Z,10.87
2022-10-03T00:24:56.398Z,10.92
2022-10-03T00:30:24.748Z,10.97
2022-10-03T00:35:51.556Z,10.97
2022-10-03T00:41:28.188Z,10.90
2022-10-03T00:47:19.296Z,10.80
2022-10-03T00:53:06.322Z,10.72
2022-10-03T00:58:39.267Z,10.66
2022-10-03T01:04:23.281Z,10.61
2022-10-03T01:10:14.405Z,10.49
2022-10-03T01:15:52.311Z,10.48
2022-10-03T01:21:39.246Z,10.46
2022-10-03T01:27:05.098Z,10.32
2022-10-03T01:32:53.030Z,10.31
2022-10-03T01:38:27.669Z,10.34
2022-10-03T01:43:56.722Z,10.34
2022-10-03T01:49:18.065Z,10.30
2022-10-03T01:54:46.375Z,10.23
2022-10-03T02:00:18.120Z,10.15
2022-10-03T02:05:48.283Z,10.07
2022-10-03T02:11:22.485Z,10.03
2022-10-03T02:16:52.824Z,10.05
2022-10-03T02:22:28.557Z,10.00
2022-10-03T02:28:30.436Z,10.01
2022-10-03T02:34:33.363Z,10.01
2022-10-03T02:40:40.780Z,9.96
2022-10-03T02:46:07.683Z,9.89
2022-10-03T02:52:27.660Z,9.84
2022-10-03T02:58:11.761Z,9.82
2022-10-03T03:03:54.385Z,9.75
2022-10-03T03:09:34.504Z,9.72
2022-10-03T03:15:32.238Z,9.80
2022-10-03T03:21:05.664Z,9.83
2022-10-03T03:26:47.641Z,9.90
2022-10-03T03:32:25.026Z,9.96
2022-10-03T03:38:14.343Z,9.86
2022-10-03T03:43:55.574Z,9.87
2022-10-03T03:49:31.762Z,9.92
2022-10-03T03:55:05.599Z,9.97
2022-10-03T04:00:58.364Z,9.96
2022-10-03T04:06:36.535Z,9.89
2022-10-03T04:12:10.183Z,9.81
2022-10-03T04:18:03.659Z,9.86
2022-10-03T04:24:01.449Z,9.84
2022-10-03T04:29:25.274Z,9.86
2022-10-03T04:35:22.681Z,9.77
2022-10-03T04:40:49.077Z,9.79
2022-10-03T04:46:51.849Z,9.80
2022-10-03T04:52:15.530Z,9.82
2022-10-03T04:57:42.247Z,9.88
2022-10-03T05:03:33.875Z,9.88
2022-10-03T05:09:01.783Z,9.84
2022-10-03T05:14:44.580Z,9.83
2022-10-03T05:20:46.665Z,9.88
2022-10-03T05:26:43.092Z,9.91
2022-10-03T05:32:01.466Z,9.95
2022-10-03T05:37:40.455Z,9.92
2022-10-03T05:43:22.134Z,9.91
2022-10-03T05:49:09.529Z,9.89
2022-10-03T05:55:04.160Z,9.96
2022-10-03T06:00:36.880Z,10.02
2022-10-03T06:06:03.542Z,9.99
2022-10-03T06:11:53.828Z,10.00
2022-10-03T06:17:33.513Z,10.03
2022-10-03T06:23:14.539Z,10.12
2022-10-03T06:28:58.952Z,10.19
2022-10-03T06:34:33.591Z,10.33
2022-10-03T06:40:07.480Z,10.43
2022-10-03T06:46:05.805Z,10.37
2022-10-03T06:52:03.422Z,10.42
2022-10-03T06:57:27.025Z,10.35
2022-10-03T07:03:20.205Z,10.34
2022-10-03T07:09:25.201Z,10.26
2022-10-03T07:15:33.665Z,10.34
2022-10-03T07:22:00.127Z,10.40
2022-10-03T07:27:35.787Z,10.39
2022-10-03T07:33:05.686Z,10.52
2022-10-03T07:38:59.416Z,10.58
2022-10-03T07:44:59.416Z,10.54
2022-10-03T07:50:41.128Z,10.45
2022-10-03T07:56:17.669Z,10.48
2022-10-03T08:01:44.393Z,10.58
2022-10-03T08:07:29.009Z,10.76
2022-10-03T08:13:28.258Z,10.70
2022-10-03T08:19:21.553Z,10.73
2022-10-03T08:25:10.216Z,10.87
2022-10-03T08:31:09.988Z,11.04
2022-10-03T08:37:01.338Z,11.08
2022-10-03T08:42:41.684Z,11.00
2022-10-03T08:48:27.461Z,11.04
2022-10-03T08:53:48.298Z,11.09
2022-10-03T08:59:34.306Z,11.12
2022-10-03T09:04:58.018Z,11.21
2022-10-03T09:10:50.701Z,11.32
2022-10-03T09:16:46.693Z,11.38
2022-10-03T09:22:32.631Z,11.41
2022-10-03T09:28:30.911Z,11.46
2022-10-03T09:34:02.137Z,11.46
2022-10-03T09:39:44.942Z,11.53
2022-10-03T09:45:43.991Z,11.58
2022-10-03T09:51:57.391Z,11.43
2022-10-03T09:57:40.297Z,11.29
2022-10-03T10:03:43.796Z,11.30
2022-10-03T10:09:26.403Z,11.39
2022-10-03T10:15:16.386Z,11.41
2022-10-03T10:20:45.936Z,11.67
2022-10-03T10:27:04.393Z,11.95
2022-10-03T10:32:34.536Z,11.93
2022-10-03T10:38:15.393Z,11.90
2022-10-03T10:43:51.230Z,11.84
2022-10-03T10:49:33.832Z,11.92
2022-10-03T10:55:32.565Z,12.33
2022-10-03T11:01:28.865Z,12.37
2022-10-03T11:07:04.966Z,12.32
2022-10-03T11:13:01.399Z,12.25
2022-10-03T11:18:46.968Z,12.09
2022-10-03T11:24:23.159Z,12.15
2022-10-03T11:30:08.618Z,12.20
2022-10-03T11:35:58.215Z,12.55
2022-10-03T11:41:37.993Z,12.99
2022-10-03T11:47:21.263Z,13.19
2022-10-03T11:52:51.175Z,13.05
2022-10-03T11:58:27.473Z,12.91
2022-10-03T12:03:58.959Z,12.72
2022-10-03T12:09:25.436Z,12.46
2022-10-03T12:14:51.187Z,12.31
2022-10-03T12:20:22.970Z,12.32
2022-10-03T12:25:46.113Z,12.48
2022-10-03T12:31:19.258Z,12.65
2022-10-03T12:37:00.510Z,12.72
2022-10-03T12:42:33.232Z,12.85
2022-10-03T12:48:07.581Z,12.94
2022-10-03T12:53:49.318Z,13.08
2022-10-03T12:59:28.140Z,13.22
2022-10-03T13:05:10.601Z,13.21
2022-10-03T13:10:55.802Z,13.23
2022-10-03T13:16:32.446Z,13.33
2022-10-03T13:22:07.199Z,13.34
2022-10-03T13:27:36.044Z,13.27
2022-10-03T13:33:01.884Z,13.06
2022-10-03T13:38:31.829Z,12.93
2022-10-03T13:44:06.140Z,13.02
2022-10-03T13:49:51.592Z,13.28
2022-10-03T13:55:30.414Z,13.32
2022-10-03T14:01:13.490Z,13.24
2022-10-03T14:06:52.496Z,13.25
2022-10-03T14:12:56.060Z,13.33
2022-10-03T14:18:25.615Z,13.38
2022-10-03T14:23:58.169Z,13.41
2022-10-03T14:29:32.867Z,13.22
2022-10-03T14:35:24.776Z,13.05
2022-10-03T14:40:50.990Z,13.05
2022-10-03T14:46:14.237Z,13.06
2022-10-03T14:51:41.726Z,12.96
2022-10-03T14:57:18.618Z,12.93
2022-10-03T15:02:47.083Z,12.93
2022-10-03T15:08:16.209Z,12.87
2022-10-03T15:13:46.736Z,12.90
2022-10-03T15:19:29.087Z,12.91
2022-10-03T15:24:52.810Z,12.89
2022-10-03T15:30:30.712Z,12.91
2022-10-03T15:35:59.282Z,12.83
2022-10-03T15:41:38.965Z,12.75
2022-10-03T15:47:06.500Z,12.71
2022-10-03T15:52:42.795Z,12.61
2022-10-03T15:58:15.390Z,12.57
2022-10-03T16:03:56.581Z,12.53
2022-10-03T16:09:31.486Z,12.52
2022-10-03T16:15:16.997Z,12.44
2022-10-03T16:20:43.226Z,12.39
2022-10-03T16:26:12.947Z,12.38
2022-10-03T16:31:41.276Z,12.44
2022-10-03T16:37:06.953Z,12.48
2022-10-03T16:42:39.794Z,12.49
2022-10-03T16:48:29.007Z,12.38
2022-10-03T16:53:53.255Z,12.27
2022-10-03T16:59:19.608Z,12.14
2022-10-03T17:04:44.492Z,12.11
2022-10-03T17:10:17.650Z,12.06
2022-10-03T17:15:48.999Z,12.03
2022-10-03T17:21:26.569Z,12.01
2022-10-03T17:26:52.714Z,12.03
2022-10-03T17:32:53.353Z,12.01
2022-10-03T17:38:48.302Z,11.99
2022-10-03T17:44:14.645Z,12.03
2022-10-03T17:50:00.293Z,12.04
2022-10-03T17:55:30.198Z,12.21
2022-10-03T18:01:02.183Z,12.21
2022-10-03T18:06:29.049Z,12.18
2022-10-03T18:11:51.518Z,12.16
2022-10-03T18:17:34.014Z,12.10
2022-10-03T18:23:02.859Z,11.94
2022-10-03T18:28:44.595Z,11.95
2022-10-03T18:34:15.881Z,11.97
2022-10-03T18:39:38.379Z,11.93
2022-10-03T18:45:00.958Z,11.83
2022-10-03T18:50:27.698Z,11.85
2022-10-03T18:55:55.652Z,11.88
2022-10-03T19:01:19.332Z,11.92
2022-10-03T19:06:51.692Z,11.91
2022-10-03T19:12:23.050Z,11.84
2022-10-03T19:18:20.964Z,11.76
2022-10-03T19:23:47.049Z,11.76
2022-10-03T19:29:17.958Z,11.80
2022-10-03T19:34:40.616Z,11.78
2022-10-03T19:40:01.823Z,11.74
2022-10-03T19:45:23.500Z,11.79
2022-10-03T19:50:44.509Z,11.85
2022-10-03T19:56:20.483Z,11.78
2022-10-03T20:01:46.904Z,11.69
2022-10-03T20:07:16.763Z,11.68
2022-10-03T20:12:45.078Z,11.65
2022-10-03T20:18:07.170Z,11.65
2022-10-03T20:23:31.381Z,11.79
2022-10-03T20:29:06.098Z,11.72
2022-10-03T20:34:27.297Z,11.64
2022-10-03T20:39:49.942Z,11.57
2022-10-03T20:45:27.708Z,11.41
2022-10-03T20:50:49.140Z,11.29
2022-10-03T20:56:13.166Z,11.33
2022-10-03T21:01:37.881Z,11.44
2022-10-03T21:07:10.761Z,11.43
2022-10-03T21:12:39.139Z,11.40
2022-10-03T21:18:01.688Z,11.36
2022-10-03T21:23:25.080Z,11.26
2022-10-03T21:28:46.175Z,11.22
2022-10-03T21:34:20.975Z,11.12
2022-10-03T21:40:01.815Z,11.05
2022-10-03T21:45:52.287Z,11.01
2022-10-03T21:51:28.918Z,10.93
2022-10-03T21:57:31.961Z,10.93
2022-10-03T22:03:20.018Z,10.96
2022-10-03T22:08:44.626Z,11.02
2022-10-03T22:14:14.400Z,11.04
2022-10-03T22:19:44.435Z,11.10
2022-10-03T22:25:29.622Z,11.15
2022-10-03T22:30:57.606Z,11.16
2022-10-03T22:36:19.671Z,11.21
2022-10-03T22:41:43.677Z,11.26
2022-10-03T22:47:16.308Z,11.23
2022-10-03T22:52:46.981Z,11.15
2022-10-03T22:58:08.602Z,11.11
2022-10-03T23:03:34.016Z,11.09
2022-10-03T23:09:18.044Z,11.10
2022-10-03T23:14:46.533Z,11.05
2022-10-03T23:20:35.174Z,11.15
2022-10-03T23:26:04.976Z,11.07
2022-10-03T23:31:55.201Z,11.14
2022-10-03T23:37:15.819Z,11.17
2022-10-03T23:42:44.483Z,11.16
2022-10-03T23:48:10.265Z,11.16
2022-10-03T23:53:44.921Z,11.14
2022-10-03T23:59:35.832Z,11.19
